Latest Weather Observations for Alice Springs Airport

IDD60801

Issued at 4:01 pm CST Friday 26 August 2016 (issued every 30 minutes, with the page automatically refreshed every 10 minutes)

About weather observations | Map of weather stations | Latest weather observations for NT | Other Formats
Station Details ID: 015590 Name: ALICE SPRINGS AIRPORT Lat: -23.80 Lon: 133.89 Height: 546.0 m
Data from the previous 72 hours. | See also: Recent months at Alice Springs Airport
Date/Time
CST
Temp
°C
App
Temp
°C
Dew
Point
°C
Rel
Hum
%
Delta-T
°C
Wind Press
QNH
hPa
Press
MSL
hPa
Rain since
9am
mm
Dir  Spd
km/h
Gust
km/h
Spd
kts
Gust
kts
26/04:00pm 18.2 13.5 -5.2 20 9.4 S 11 19 6 10 1020.1 1019.3 0.0
26/03:30pm 17.7 12.9 -5.9 19 9.3 ESE 11 19 6 10 1020.4 1019.6 0.0
26/03:00pm 17.7 12.6 -4.9 21 9.1 S 13 22 7 12 1020.8 1020.0 0.0
26/02:30pm 17.9 12.8 -5.0 20 9.2 SE 13 19 7 10 1021.2 1020.4 0.0
26/02:00pm 17.1 12.9 -4.0 23 8.6 WSW 9 15 5 8 1021.8 1021.0 0.0
26/01:30pm 17.0 12.1 -3.8 24 8.5 SE 13 19 7 10 1022.3 1021.5 0.0
26/01:00pm 16.4 12.4 -2.6 27 7.9 SW 9 19 5 10 1022.8 1022.0 0.0
26/12:30pm 16.0 11.7 -1.4 30 7.4 ENE 11 19 6 10 1023.3 1022.6 0.0
26/12:00pm 15.3 10.7 -0.8 33 6.9 ESE 13 20 7 11 1023.6 1022.9 0.0
26/11:30am 13.9 10.2 -0.1 38 6.0 ESE 9 17 5 9 1024.4 1023.6 0.0
26/11:00am 13.6 9.5 -0.2 38 5.9 E 11 19 6 10 1024.5 1023.7 0.0
26/10:30am 12.8 8.4 0.1 41 5.4 SE 13 22 7 12 1024.5 1023.7 0.0
26/10:00am 11.5 7.6 1.3 49 4.4 ESE 11 17 6 9 1024.8 1024.1 0.0
26/09:30am 11.5 6.8 1.0 48 4.5 SE 15 19 8 10 1024.9 1024.2 0.0
26/09:00am 10.3 5.7 1.7 55 3.7 ESE 15 19 8 10 1024.8 1024.1 0.0
26/08:30am 9.1 6.2 1.6 59 3.2 E 6 9 3 5 1024.7 1024.0 0.0
26/08:00am 6.8 3.9 1.2 67 2.3 WNW 6 7 3 4 1024.3 1023.5 0.0
26/07:30am 4.1 0.5 0.3 76 1.5 NW 9 9 5 5 1024.0 1023.2 0.0
26/07:00am 2.1 -1.3 -0.6 82 1.0 WNW 7 9 4 5 1023.8 1023.0 0.0
26/06:30am 2.8 -0.6 -0.4 79 1.2 NW 7 7 4 4 1023.5 1022.8 0.0
26/06:00am 2.4 -0.9 -0.2 83 1.0 NW 7 7 4 4 1023.1 1022.4 0.0
26/05:30am 3.5 0.2 -0.1 77 1.4 W 7 7 4 4 1023.0 1022.3 0.0
26/05:00am 3.5 0.2 -0.1 77 1.4 WSW 7 7 4 4 1022.6 1021.8 0.0
26/04:30am 2.9 -0.8 -0.2 80 1.2 WSW 9 9 5 5 1022.4 1021.6 0.0
26/04:00am 4.4 1.1 0.3 75 1.6 WSW 7 9 4 5 1022.3 1021.5 0.0
26/03:30am 4.8 0.8 0.5 74 1.7 SSW 11 13 6 7 1022.5 1021.7 0.0
26/03:00am 5.1 1.6 1.1 75 1.6 SW 9 11 5 6 1022.8 1022.0 0.0
26/02:30am 5.5 1.1 0.2 69 2.1 S 13 15 7 8 1022.8 1022.0 0.0
26/02:00am 5.2 2.0 0.7 73 1.8 W 7 9 4 5 1022.8 1022.0 0.0
26/01:30am 6.4 3.2 0.5 66 2.4 NW 7 7 4 4 1022.8 1022.0 0.0
26/01:00am 6.1 4.2 0.7 68 2.2 CALM 0 0 0 0 1022.9 1022.1 0.0
26/12:30am 6.4 3.4 1.0 68 2.2 SSE 6 7 3 4 1022.8 1022.0 0.0
26/12:00am 8.1 4.7 2.0 65 2.6 SE 9 11 5 6 1022.5 1021.7 0.0
 
Date/Time
CST
Temp
°C
App
Temp
°C
Dew
Point
°C
Rel
Hum
%
Delta-T
°C
Wind Press
QNH
hPa
Press
MSL
hPa
Rain since
9am
mm
Dir  Spd
km/h
Gust
km/h
Spd
kts
Gust
kts
25/11:30pm 8.7 4.8 1.1 59 3.2 SSE 11 13 6 7 1022.5 1021.7 0.0
25/11:00pm 9.1 5.0 -0.2 52 3.8 SSE 11 13 6 7 1022.3 1021.5 0.0
25/10:30pm 9.7 5.6 -0.3 49 4.1 S 11 13 6 7 1022.2 1021.4 0.0
25/10:00pm 8.6 4.6 0.3 56 3.4 SW 11 11 6 6 1021.8 1021.0 0.0
25/09:30pm 9.1 5.7 -0.5 51 3.9 SSW 7 9 4 5 1021.6 1020.9 0.0
25/09:00pm 11.4 7.8 0.6 47 4.6 S 9 9 5 5 1021.3 1020.5 0.0
25/08:30pm 12.0 8.6 2.1 50 4.4 SSE 9 11 5 6 1020.8 1020.0 0.0
25/08:00pm 12.7 8.2 -0.6 40 5.6 SSE 13 15 7 8 1020.4 1019.6 0.0
25/07:30pm 14.2 8.8 -1.6 33 6.6 S 17 22 9 12 1019.9 1019.1 0.0
25/07:00pm 15.7 9.1 -3.1 27 7.7 S 22 32 12 17 1019.3 1018.5 0.0
25/06:30pm 16.1 10.3 -4.4 24 8.2 S 17 24 9 13 1018.6 1017.8 0.0
25/06:00pm 17.8 11.5 -5.6 20 9.3 SSW 19 28 10 15 1018.1 1017.2 0.0
25/05:30pm 18.7 11.8 -5.9 18 9.8 SSW 22 28 12 15 1017.5 1016.7 0.0
25/05:00pm 19.9 15.1 -6.3 16 10.5 SSW 11 32 6 17 1017.2 1016.4 0.0
25/04:30pm 19.8 14.6 -6.6 16 10.5 SSW 13 20 7 11 1017.0 1016.2 0.0
25/04:00pm 19.7 15.3 -5.8 17 10.3 SSW 9 17 5 9 1016.9 1016.1 0.0
25/03:30pm 19.7 14.2 -5.8 17 10.3 SSW 15 28 8 15 1016.8 1016.0 0.0
25/03:00pm 19.4 13.1 -5.6 18 10.1 SW 19 32 10 17 1017.0 1016.2 0.0
25/02:30pm 19.4 13.9 -5.6 18 10.1 SSW 15 20 8 11 1017.1 1016.3 0.0
25/02:00pm 20.0 13.6 -6.6 16 10.6 S 19 33 10 18 1017.4 1016.6 0.0
25/01:30pm 18.9 14.5 -5.9 18 9.9 SE 9 15 5 8 1017.7 1016.9 0.0
25/01:00pm 19.1 13.2 -5.9 18 10.0 SSW 17 30 9 16 1018.3 1017.5 0.0
25/12:30pm 19.3 13.7 -5.9 17 10.1 SSE 15 28 8 15 1018.6 1017.8 0.0
25/12:00pm 18.5 12.9 -5.9 18 9.7 SSE 15 26 8 14 1018.9 1018.1 0.0
25/11:30am 17.7 12.7 -4.4 22 9.0 SSE 13 20 7 11 1019.4 1018.6 0.0
25/11:00am 17.6 12.4 -6.1 19 9.3 ESE 13 28 7 15 1019.7 1018.9 0.0
25/10:30am 17.4 13.5 -4.7 22 8.9 ENE 7 22 4 12 1020.0 1019.2 0.0
25/10:00am 16.5 11.9 -4.0 24 8.3 E 11 15 6 8 1020.0 1019.2 0.0
25/09:30am 15.5 11.1 -2.3 29 7.4 ENE 11 17 6 9 1020.1 1019.3 0.0
25/09:00am 12.1 9.0 1.3 47 4.7 NNE 7 11 4 6 1019.9 1019.1 0.0
25/08:30am 9.7 6.4 -0.9 47 4.3 NW 6 7 3 4 1019.7 1018.9 0.0
25/08:00am 6.0 2.5 -1.6 58 2.9 WNW 7 9 4 5 1019.5 1018.7 0.0
25/07:30am 3.1 -0.5 -2.1 69 1.9 NW 7 9 4 5 1019.3 1018.5 0.0
25/07:00am 1.7 - - - - NW 9 9 5 5 1018.9 1018.1 0.0
25/06:30am 2.4 -1.3 -3.3 66 2.0 NW 7 9 4 5 1018.6 1017.8 0.0
25/06:00am 2.7 -1.5 -3.6 63 2.2 NW 9 11 5 6 1018.5 1017.7 0.0
25/05:30am 2.1 -2.0 -3.0 69 1.8 NW 9 11 5 6 1018.3 1017.5 0.0
25/05:00am 2.6 -1.1 -3.1 66 2.0 NW 7 9 4 5 1018.1 1017.2 0.0
25/04:30am 2.8 -1.7 -3.1 65 2.1 NNW 11 11 6 6 1017.9 1017.0 0.0
25/04:00am 2.8 -1.0 -3.5 63 2.2 NW 7 9 4 5 1017.6 1016.8 0.0
25/03:30am 2.3 -2.1 -2.8 69 1.8 WNW 11 11 6 6 1017.6 1016.8 0.0
25/03:00am 2.0 -1.7 -2.5 72 1.6 WNW 7 9 4 5 1017.7 1016.9 0.0
25/02:30am 2.7 0.4 -2.0 71 1.7 CALM 0 0 0 0 1017.7 1016.9 0.0
25/02:00am 2.7 0.6 -1.0 76 1.4 CALM 0 0 0 0 1018.1 1017.2 0.0
25/01:30am 3.7 0.5 -0.8 72 1.7 NW 6 7 3 4 1018.2 1017.3 0.0
25/01:00am 3.7 0.4 -1.4 69 1.9 NNW 6 7 3 4 1018.6 1017.8 0.0
25/12:30am 4.1 0.6 -1.5 67 2.1 NNW 7 9 4 5 1018.9 1018.1 0.0
25/12:00am 4.7 0.8 -1.7 63 2.4 NW 9 9 5 5 1018.8 1018.0 0.0
 
Date/Time
CST
Temp
°C
App
Temp
°C
Dew
Point
°C
Rel
Hum
%
Delta-T
°C
Wind Press
QNH
hPa
Press
MSL
hPa
Rain since
9am
mm
Dir  Spd
km/h
Gust
km/h
Spd
kts
Gust
kts
24/11:30pm 5.6 2.0 -2.1 57 2.9 NW 7 9 4 5 1018.9 1018.1 0.0
24/11:00pm 5.9 3.0 -1.4 59 2.8 NNW 4 7 2 4 1019.0 1018.2 0.0
24/10:30pm 7.3 3.7 -2.4 50 3.7 NNW 7 7 4 4 1019.1 1018.3 0.0
24/10:00pm 8.4 4.8 -2.2 47 4.1 NNW 7 7 4 4 1019.1 1018.3 0.0
24/09:30pm 7.9 5.6 -2.2 49 3.9 CALM 0 0 0 0 1019.2 1018.4 0.0
24/09:00pm 9.5 6.0 -2.6 42 4.7 ESE 6 6 3 3 1018.9 1018.1 0.0
24/08:30pm 10.4 6.4 -2.6 40 5.1 SE 9 13 5 7 1018.8 1018.0 0.0
24/08:00pm 11.1 6.7 -2.2 39 5.3 ESE 11 11 6 6 1018.4 1017.6 0.0
24/07:30pm 12.0 7.5 -2.9 35 5.9 ESE 11 11 6 6 1018.2 1017.3 0.0
24/07:00pm 12.5 8.0 -3.1 33 6.2 SE 11 13 6 7 1017.9 1017.0 0.0
24/06:30pm 14.0 9.5 -3.5 29 7.0 SSE 11 15 6 8 1017.4 1016.6 0.0
24/06:00pm 16.2 10.7 -5.5 22 8.5 SSE 15 22 8 12 1016.9 1016.1 0.0
24/05:30pm 17.0 10.6 -6.5 19 9.1 SE 19 30 10 16 1016.7 1015.9 0.0
24/05:00pm 17.7 11.2 -7.9 16 9.7 S 19 26 10 14 1016.5 1015.6 0.0
24/04:30pm 18.5 12.0 -8.5 15 10.2 SE 19 30 10 16 1016.2 1015.3 0.0
24/04:00pm 18.2 12.1 -8.2 16 10.0 SSE 17 24 9 13 1016.1 1015.2 0.0
24/03:30pm 18.6 11.8 -8.8 15 10.3 S 20 32 11 17 1016.0 1015.1 0.0
24/03:00pm 18.0 12.0 -7.1 17 9.7 SSE 17 26 9 14 1016.1 1015.2 0.0
24/02:30pm 18.2 11.6 -6.6 18 9.7 SSE 20 32 11 17 1016.1 1015.2 0.0
24/02:00pm 17.5 11.0 -6.3 19 9.3 SE 20 32 11 17 1016.4 1015.5 0.0
24/01:30pm 17.6 11.9 -3.7 23 8.8 S 17 28 9 15 1016.8 1016.0 0.0
24/01:00pm 16.0 10.1 -2.5 28 7.7 SE 19 32 10 17 1017.1 1016.3 0.0
24/12:30pm 16.8 10.7 -2.5 26 8.1 SSE 20 33 11 18 1017.5 1016.7 0.0
24/12:00pm 16.1 10.6 -2.3 28 7.7 SE 17 26 9 14 1017.9 1017.0 0.0
24/11:30am 15.6 9.8 -1.3 31 7.2 SE 19 28 10 15 1018.3 1017.5 0.0
24/11:00am 14.9 9.1 -0.4 35 6.6 SE 20 30 11 16 1018.5 1017.7 0.0
24/10:30am 14.6 9.5 0.8 39 6.1 SE 17 32 9 17 1018.9 1018.1 0.0
24/10:00am 13.5 9.2 3.0 49 4.8 SSE 15 26 8 14 1019.1 1018.3 0.0
24/09:30am 12.1 8.8 4.6 60 3.5 S 11 17 6 9 1019.2 1018.4 0.0
24/09:00am 10.2 7.3 4.6 68 2.6 SSW 9 13 5 7 1019.0 1018.2 0.0
24/08:30am 9.0 7.1 5.1 76 1.8 WSW 4 11 2 6 1018.6 1017.8 0.0
24/08:00am 7.4 5.1 5.0 85 1.1 WNW 6 9 3 5 1018.3 1017.5 0.0
24/07:30am 3.8 0.6 2.8 93 0.4 WNW 9 11 5 6 1017.7 1016.9 0.0
24/07:00am 3.1 0.1 2.1 93 0.4 WNW 7 7 4 4 1017.4 1016.6 0.0
24/06:30am 4.3 1.5 3.1 92 0.5 NNW 7 9 4 5 1017.0 1016.2 0.0
24/06:00am 4.6 1.4 2.9 89 0.7 NW 9 9 5 5 1016.6 1015.7 0.0
24/05:30am 5.0 2.2 3.1 87 0.8 WNW 7 9 4 5 1016.2 1015.3 0.0
24/05:00am 5.0 1.9 3.6 91 0.6 WNW 9 11 5 6 1015.7 1014.9 0.0
24/04:30am 5.0 1.9 3.6 91 0.6 WNW 9 9 5 5 1015.4 1014.6 0.0
24/04:00am 4.2 1.0 3.3 94 0.4 W 9 11 5 6 1015.4 1014.6 0.0
24/03:30am 4.3 0.8 3.6 95 0.3 WNW 11 13 6 7 1015.3 1014.5 0.0
24/03:00am 4.6 1.2 4.1 97 0.2 W 11 11 6 6 1015.4 1014.6 0.0
24/02:30am 4.9 1.6 4.4 97 0.2 WNW 11 11 6 6 1015.4 1014.6 0.0
24/02:00am 5.3 2.4 4.6 95 0.3 WNW 9 9 5 5 1015.4 1014.6 0.0
24/01:30am 5.4 2.1 4.7 95 0.3 SW 11 11 6 6 1015.5 1014.7 0.0
24/01:00am 6.3 2.8 5.4 94 0.4 SW 13 13 7 7 1015.5 1014.7 0.0
24/12:30am 6.4 3.2 5.3 93 0.5 SW 11 13 6 7 1015.4 1014.6 0.0
24/12:00am 6.6 5.2 5.7 94 0.4 WNW 2 7 1 4 1015.2 1014.4 0.0
 
Date/Time
CST
Temp
°C
App
Temp
°C
Dew
Point
°C
Rel
Hum
%
Delta-T
°C
Wind Press
QNH
hPa
Press
MSL
hPa
Rain since
9am
mm
Dir  Spd
km/h
Gust
km/h
Spd
kts
Gust
kts
23/11:30pm 7.4 5.4 6.3 93 0.5 NNW 6 7 3 4 1015.0 1014.1 0.0
23/11:00pm 8.8 7.3 6.9 88 0.9 N 4 9 2 5 1015.1 1014.3 0.0
23/10:30pm 9.0 8.3 7.1 88 0.9 CALM 0 0 0 0 1015.4 1014.6 0.0
23/10:00pm 9.7 7.8 7.7 87 1.0 SW 7 7 4 4 1015.6 1014.8 0.0
23/09:30pm 10.1 8.3 7.9 86 1.1 WSW 7 9 4 5 1015.7 1014.9 0.0
23/09:00pm 10.4 8.2 8.0 85 1.2 WSW 9 11 5 6 1015.7 1014.9 0.0
23/08:30pm 9.6 6.6 7.8 88 0.9 SSW 13 13 7 7 1015.5 1014.7 0.0
23/08:00pm 10.4 7.5 8.0 85 1.2 ESE 13 15 7 8 1014.4 1013.5 0.0
23/07:30pm 10.9 8.1 8.5 85 1.2 SE 13 17 7 9 1014.0 1013.1 0.0
23/07:10pm 11.4 7.9 8.7 83 1.4 SSE 17 24 9 13 1013.7 1012.9 0.0
23/07:00pm 11.5 8.1 9.2 86 1.2 SSE 17 24 9 13 1013.5 1012.7 0.0
23/06:59pm 11.6 8.2 9.3 86 1.2 SSE 17 24 9 13 1013.5 1012.7 0.0
23/06:30pm 11.4 8.5 9.5 88 1.0 SSE 15 28 8 15 1013.5 1012.7 0.0
23/06:16pm 11.8 7.2 9.7 87 1.1 S 24 32 13 17 1013.5 1012.7 0.0
23/06:00pm 12.1 7.1 9.6 85 1.3 S 26 33 14 18 1012.9 1012.0 0.0
23/05:35pm 13.0 8.9 10.0 82 1.6 SSE 22 28 12 15 1011.9 1011.1 0.0
23/05:30pm 13.2 9.5 10.0 81 1.7 SSE 20 28 11 15 1011.8 1010.9 0.0
23/05:00pm 14.0 10.4 9.7 75 2.3 SE 19 26 10 14 1010.9 1010.0 0.0
23/04:30pm 14.5 11.3 9.8 73 2.5 SE 17 26 9 14 1010.7 1009.8 0.0

Other Formats:

Comma delimited format used in spreadsheet applications
http://www.bom.gov.au/fwo/IDD60801/IDD60801.94326.axf

JavaScript Object Notation format (JSON) in row-major order
http://www.bom.gov.au/fwo/IDD60801/IDD60801.94326.json